createdAt,value
2017-07-21T00:00:16.365Z,18.82
2017-07-21T00:02:48.797Z,18.79
2017-07-21T00:05:21.232Z,18.78
2017-07-21T00:07:53.621Z,18.75
2017-07-21T00:10:25.944Z,18.74
2017-07-21T00:12:58.318Z,18.66
2017-07-21T00:15:30.765Z,18.66
2017-07-21T00:18:03.172Z,18.67
2017-07-21T00:20:35.554Z,18.60
2017-07-21T00:23:08.095Z,18.59
2017-07-21T00:25:40.375Z,18.58
2017-07-21T00:28:12.745Z,18.58
2017-07-21T00:30:45.107Z,18.55
2017-07-21T00:33:17.491Z,18.53
2017-07-21T00:35:50.237Z,18.51
2017-07-21T00:38:22.209Z,18.49
2017-07-21T00:40:54.780Z,18.45
2017-07-21T00:43:27.045Z,18.38
2017-07-21T00:45:59.428Z,18.34
2017-07-21T00:48:31.824Z,18.28
2017-07-21T00:51:04.142Z,18.24
2017-07-21T00:53:36.470Z,18.22
2017-07-21T00:56:08.878Z,18.16
2017-07-21T00:58:41.182Z,18.14
2017-07-21T01:01:13.570Z,18.07
2017-07-21T01:03:45.962Z,18.01
2017-07-21T01:06:18.356Z,17.95
2017-07-21T01:08:50.804Z,17.90
2017-07-21T01:11:23.162Z,17.86
2017-07-21T01:13:55.601Z,17.84
2017-07-21T01:16:28.005Z,17.83
2017-07-21T01:19:00.424Z,17.79
2017-07-21T01:21:32.741Z,17.74
2017-07-21T01:24:05.166Z,17.68
2017-07-21T01:26:37.617Z,17.67
2017-07-21T01:29:10.100Z,17.59
2017-07-21T01:31:42.458Z,17.53
2017-07-21T01:34:15.041Z,17.51
2017-07-21T01:36:47.322Z,17.46
2017-07-21T01:39:19.806Z,17.41
2017-07-21T01:41:52.393Z,17.39
2017-07-21T01:44:24.777Z,17.36
2017-07-21T01:46:57.201Z,17.30
2017-07-21T01:49:29.625Z,17.26
2017-07-21T01:52:02.079Z,17.22
2017-07-21T01:54:34.517Z,17.18
2017-07-21T01:57:06.897Z,17.13
2017-07-21T01:59:39.286Z,17.09
2017-07-21T02:02:11.682Z,17.07
2017-07-21T02:04:44.070Z,17.01
2017-07-21T02:07:16.513Z,16.97
2017-07-21T02:09:48.962Z,16.91
2017-07-21T02:12:21.344Z,16.85
2017-07-21T02:14:53.769Z,16.83
2017-07-21T02:17:26.104Z,16.79
2017-07-21T02:19:58.556Z,16.73
2017-07-21T02:22:30.849Z,16.77
2017-07-21T02:25:03.236Z,16.79
2017-07-21T02:27:35.565Z,16.78
2017-07-21T02:30:07.885Z,16.82
2017-07-21T02:32:40.166Z,16.92
2017-07-21T02:35:12.517Z,16.95
2017-07-21T02:37:44.968Z,17.00
2017-07-21T02:40:17.285Z,17.06
2017-07-21T02:42:49.624Z,17.09
2017-07-21T02:45:21.996Z,17.11
2017-07-21T02:47:54.374Z,17.13
2017-07-21T02:50:26.751Z,17.15
2017-07-21T02:52:59.058Z,17.15
2017-07-21T02:55:31.505Z,17.14
2017-07-21T02:58:03.885Z,17.11
2017-07-21T03:00:36.153Z,17.05
2017-07-21T03:03:08.420Z,17.01
2017-07-21T03:05:40.857Z,16.91
2017-07-21T03:08:13.184Z,16.85
2017-07-21T03:10:45.636Z,16.78
2017-07-21T03:13:18.285Z,16.72
2017-07-21T03:15:50.794Z,16.62
2017-07-21T03:18:23.184Z,16.54
2017-07-21T03:20:55.605Z,16.47
2017-07-21T03:23:28.032Z,16.43
2017-07-21T03:26:00.337Z,16.43
2017-07-21T03:28:32.574Z,16.37
2017-07-21T03:31:05.033Z,16.28
2017-07-21T03:33:37.321Z,16.17
2017-07-21T03:36:09.721Z,16.13
2017-07-21T03:38:41.965Z,16.11
2017-07-21T03:41:14.337Z,16.09
2017-07-21T03:43:46.794Z,16.03
2017-07-21T03:46:19.202Z,15.99
2017-07-21T03:48:51.457Z,15.95
2017-07-21T03:51:24.100Z,15.99
2017-07-21T03:53:56.482Z,16.03
2017-07-21T03:56:28.892Z,16.06
2017-07-21T03:59:01.254Z,16.11
2017-07-21T04:01:33.680Z,16.17
2017-07-21T04:04:06.053Z,16.23
2017-07-21T04:06:38.466Z,16.30
2017-07-21T04:09:10.842Z,16.38
2017-07-21T04:11:43.179Z,16.47
2017-07-21T04:14:15.554Z,16.62
2017-07-21T04:16:47.904Z,16.79
2017-07-21T04:19:20.133Z,16.98
2017-07-21T04:21:52.402Z,17.23
2017-07-21T04:24:24.767Z,17.58
2017-07-21T04:26:57.046Z,18.16
2017-07-21T04:29:29.394Z,19.11
2017-07-21T04:32:01.774Z,19.94
2017-07-21T04:34:34.047Z,20.55
2017-07-21T04:37:06.332Z,21.14
2017-07-21T04:39:38.774Z,21.56
2017-07-21T04:42:11.204Z,21.96
2017-07-21T04:44:43.466Z,22.22
2017-07-21T04:47:15.912Z,22.54
2017-07-21T04:49:48.422Z,22.90
2017-07-21T04:52:20.785Z,23.24
2017-07-21T04:54:53.266Z,23.62
2017-07-21T04:57:26.857Z,23.88
2017-07-21T04:59:59.066Z,24.04
2017-07-21T05:02:31.508Z,24.51
2017-07-21T05:05:03.950Z,24.97
2017-07-21T05:07:36.357Z,25.21
2017-07-21T05:10:08.709Z,25.14
2017-07-21T05:12:41.211Z,24.87
2017-07-21T05:15:13.876Z,25.09
2017-07-21T05:17:46.065Z,24.94
2017-07-21T05:20:18.412Z,24.34
2017-07-21T05:22:50.847Z,23.82
2017-07-21T05:25:23.201Z,24.19
2017-07-21T05:27:55.949Z,24.42
2017-07-21T05:30:28.100Z,25.03
2017-07-21T05:33:00.498Z,25.05
2017-07-21T05:35:32.925Z,25.79
2017-07-21T05:38:05.469Z,26.45
2017-07-21T05:40:37.910Z,27.03
2017-07-21T05:43:10.597Z,27.28
2017-07-21T05:45:42.652Z,26.65
2017-07-21T05:48:15.156Z,26.56
2017-07-21T05:50:47.532Z,27.03
2017-07-21T05:53:20.015Z,27.39
2017-07-21T05:55:52.461Z,28.06
2017-07-21T05:58:25.061Z,28.31
2017-07-21T06:00:57.554Z,28.33
2017-07-21T06:03:29.906Z,27.75
2017-07-21T06:06:02.569Z,27.67
2017-07-21T06:08:34.798Z,27.92
2017-07-21T06:11:07.146Z,28.06
2017-07-21T06:13:39.503Z,27.96
2017-07-21T06:16:11.823Z,27.99
2017-07-21T06:18:44.268Z,28.54
2017-07-21T06:21:16.618Z,29.33
2017-07-21T06:23:49.130Z,29.11
2017-07-21T06:26:21.486Z,28.16
2017-07-21T06:28:53.818Z,27.55
2017-07-21T06:31:26.213Z,26.89
2017-07-21T06:33:58.630Z,26.77
2017-07-21T06:36:30.969Z,26.76
2017-07-21T06:39:03.577Z,26.95
2017-07-21T06:41:35.972Z,27.99
2017-07-21T06:44:08.400Z,29.17
2017-07-21T06:46:40.766Z,30.22
2017-07-21T06:49:20.144Z,30.89
2017-07-21T06:51:52.545Z,31.38
2017-07-21T06:54:24.979Z,31.86
2017-07-21T06:56:57.401Z,32.43
2017-07-21T06:59:29.813Z,33.18
2017-07-21T07:02:02.095Z,33.64
2017-07-21T07:04:34.507Z,33.66
2017-07-21T07:07:06.862Z,33.75
2017-07-21T07:09:39.330Z,33.60
2017-07-21T07:12:11.525Z,33.46
2017-07-21T07:14:44.026Z,33.59
2017-07-21T07:17:16.398Z,32.99
2017-07-21T07:19:48.850Z,32.40
2017-07-21T07:22:21.252Z,32.26
2017-07-21T07:24:53.663Z,31.62
2017-07-21T07:27:27.016Z,29.60
2017-07-21T07:29:59.525Z,28.78
2017-07-21T07:32:31.953Z,28.66
2017-07-21T07:35:04.489Z,28.01
2017-07-21T07:37:36.917Z,26.96
2017-07-21T07:40:09.396Z,25.76
2017-07-21T07:42:41.646Z,25.04
2017-07-21T07:45:14.075Z,24.70
2017-07-21T07:47:46.420Z,25.94
2017-07-21T07:50:18.693Z,27.63
2017-07-21T07:52:51.069Z,28.97
2017-07-21T07:55:23.553Z,28.68
2017-07-21T07:57:55.953Z,27.39
2017-07-21T08:00:28.278Z,27.42
2017-07-21T08:03:00.702Z,28.76
2017-07-21T08:05:33.071Z,29.21
2017-07-21T08:08:05.412Z,29.14
2017-07-21T08:10:37.814Z,29.22
2017-07-21T08:13:10.153Z,29.31
2017-07-21T08:15:42.657Z,28.82
2017-07-21T08:18:15.085Z,28.59
2017-07-21T08:20:47.520Z,28.82
2017-07-21T08:23:19.853Z,28.77
2017-07-21T08:25:52.301Z,28.41
2017-07-21T08:28:24.688Z,27.92
2017-07-21T08:30:57.214Z,27.54
2017-07-21T08:33:29.539Z,26.94
2017-07-21T08:36:02.125Z,26.29
2017-07-21T08:38:34.538Z,25.01
2017-07-21T08:41:06.698Z,24.61
2017-07-21T08:43:39.093Z,24.59
2017-07-21T08:46:11.525Z,24.55
2017-07-21T08:48:44.014Z,24.50
2017-07-21T08:51:17.581Z,24.44
2017-07-21T08:53:49.673Z,24.44
2017-07-21T08:56:22.040Z,24.09
2017-07-21T08:58:54.279Z,24.11
2017-07-21T09:01:26.714Z,24.14
2017-07-21T09:03:59.042Z,24.20
2017-07-21T09:06:31.444Z,24.37
2017-07-21T09:09:03.922Z,24.67
2017-07-21T09:11:36.345Z,24.71
2017-07-21T09:14:08.628Z,24.85
2017-07-21T09:16:41.051Z,25.61
2017-07-21T09:19:13.528Z,27.31
2017-07-21T09:21:45.992Z,28.99
2017-07-21T09:24:18.442Z,29.67
2017-07-21T09:26:50.724Z,29.23
2017-07-21T09:29:23.116Z,29.28
2017-07-21T09:31:55.581Z,30.07
2017-07-21T09:34:28.088Z,30.71
2017-07-21T09:37:00.532Z,31.53
2017-07-21T09:39:32.849Z,31.73
2017-07-21T09:42:05.288Z,31.11
2017-07-21T09:44:37.606Z,30.40
2017-07-21T09:47:10.085Z,29.90
2017-07-21T09:49:42.366Z,29.79
2017-07-21T09:52:14.834Z,29.84
2017-07-21T09:54:47.029Z,30.17
2017-07-21T09:57:19.445Z,30.63
2017-07-21T09:59:51.995Z,31.36
2017-07-21T10:02:24.385Z,31.73
2017-07-21T10:04:56.803Z,32.10
2017-07-21T10:07:29.097Z,32.62
2017-07-21T10:10:01.378Z,32.24
2017-07-21T10:12:33.729Z,32.19
2017-07-21T10:15:06.225Z,32.44
2017-07-21T10:17:38.649Z,32.90
2017-07-21T10:20:11.009Z,32.30
2017-07-21T10:22:43.415Z,31.17
2017-07-21T10:25:15.592Z,31.15
2017-07-21T10:27:47.955Z,31.08
2017-07-21T10:30:20.353Z,31.28
2017-07-21T10:32:52.757Z,31.41
2017-07-21T10:35:25.081Z,30.89
2017-07-21T10:37:57.566Z,30.33
2017-07-21T10:40:29.995Z,29.94
2017-07-21T10:43:02.681Z,29.64
2017-07-21T10:45:34.917Z,28.94
2017-07-21T10:48:07.312Z,28.19
2017-07-21T10:50:39.602Z,27.75
2017-07-21T10:53:12.062Z,28.71
2017-07-21T10:55:44.593Z,29.08
2017-07-21T10:58:16.942Z,28.70
2017-07-21T11:00:49.097Z,28.38
2017-07-21T11:03:21.494Z,28.72
2017-07-21T11:05:53.821Z,28.50
2017-07-21T11:08:26.198Z,28.24
2017-07-21T11:10:58.509Z,27.86
2017-07-21T11:13:30.752Z,27.34
2017-07-21T11:16:02.954Z,27.72
2017-07-21T11:18:35.217Z,27.83
2017-07-21T11:21:07.551Z,28.23
2017-07-21T11:23:40.017Z,29.40
2017-07-21T11:26:12.393Z,30.06
2017-07-21T11:28:44.836Z,30.00
2017-07-21T11:31:17.225Z,30.04
2017-07-21T11:33:49.542Z,30.89
2017-07-21T11:36:21.885Z,31.03
2017-07-21T11:38:54.165Z,30.44
2017-07-21T11:41:26.430Z,30.56
2017-07-21T11:43:58.882Z,31.36
2017-07-21T11:46:31.137Z,31.47
2017-07-21T11:49:03.403Z,31.52
2017-07-21T11:51:36.131Z,31.97
2017-07-21T11:54:08.046Z,32.03
2017-07-21T11:56:40.241Z,32.83
2017-07-21T11:59:12.538Z,33.41
2017-07-21T12:01:45.145Z,34.41
2017-07-21T12:04:17.504Z,35.34
2017-07-21T12:06:49.684Z,35.36
2017-07-21T12:09:22.023Z,35.30
2017-07-21T12:11:54.416Z,35.36
2017-07-21T12:14:26.565Z,35.81
2017-07-21T12:16:58.826Z,35.82
2017-07-21T12:19:31.188Z,33.73
2017-07-21T12:22:03.456Z,33.58
2017-07-21T12:24:35.852Z,34.11
2017-07-21T12:27:08.188Z,34.33
2017-07-21T12:29:40.601Z,34.82
2017-07-21T12:32:12.898Z,35.26
2017-07-21T12:34:45.317Z,35.24
2017-07-21T12:37:17.662Z,35.16
2017-07-21T12:39:49.946Z,35.20
2017-07-21T12:42:22.328Z,35.72
2017-07-21T12:44:54.646Z,35.31
2017-07-21T12:47:26.881Z,34.51
2017-07-21T12:49:59.280Z,34.48
2017-07-21T12:52:31.641Z,34.37
2017-07-21T12:55:04.156Z,34.20
2017-07-21T12:57:36.558Z,33.43
2017-07-21T13:00:09.069Z,32.50
2017-07-21T13:02:41.338Z,31.95
2017-07-21T13:05:13.729Z,31.92
2017-07-21T13:07:46.070Z,32.09
2017-07-21T13:10:18.478Z,32.28
2017-07-21T13:12:50.805Z,32.29
2017-07-21T13:15:23.322Z,32.21
2017-07-21T13:17:55.561Z,31.68
2017-07-21T13:20:27.986Z,31.12
2017-07-21T13:23:00.299Z,30.33
2017-07-21T13:25:32.713Z,30.06
2017-07-21T13:28:04.977Z,30.57
2017-07-21T13:30:37.644Z,31.12
2017-07-21T13:33:09.685Z,31.72
2017-07-21T13:35:42.106Z,31.79
2017-07-21T13:38:14.284Z,31.12
2017-07-21T13:40:46.589Z,31.19
2017-07-21T13:43:19.022Z,31.67
2017-07-21T13:45:51.372Z,32.02
2017-07-21T13:48:23.640Z,31.90
2017-07-21T13:50:56.159Z,31.95
2017-07-21T13:53:28.501Z,31.92
2017-07-21T13:56:00.808Z,31.88
2017-07-21T13:58:33.074Z,32.08
2017-07-21T14:01:05.320Z,31.93
2017-07-21T14:03:37.582Z,31.68
2017-07-21T14:06:09.901Z,31.71
2017-07-21T14:08:42.241Z,32.18
2017-07-21T14:11:14.543Z,32.29
2017-07-21T14:13:46.808Z,31.59
2017-07-21T14:16:19.054Z,31.25
2017-07-21T14:18:51.306Z,31.30
2017-07-21T14:21:23.658Z,31.63
2017-07-21T14:23:55.938Z,31.63
2017-07-21T14:26:28.358Z,31.14
2017-07-21T14:29:00.605Z,31.22
2017-07-21T14:34:30.339Z,30.41
2017-07-21T14:37:02.702Z,29.91
2017-07-21T14:39:35.051Z,29.51
2017-07-21T14:42:07.461Z,28.91
2017-07-21T14:44:39.744Z,28.78
2017-07-21T14:47:12.104Z,28.60
2017-07-21T14:49:44.489Z,28.47
2017-07-21T14:52:16.856Z,28.28
2017-07-21T14:54:49.204Z,28.06
2017-07-21T14:57:21.577Z,27.92
2017-07-21T14:59:53.820Z,27.86
2017-07-21T15:02:26.232Z,27.88
2017-07-21T15:04:58.612Z,27.89
2017-07-21T15:07:31.005Z,27.87
2017-07-21T15:10:03.288Z,27.89
2017-07-21T15:12:35.686Z,27.92
2017-07-21T15:15:07.967Z,27.92
2017-07-21T15:17:40.196Z,27.91
2017-07-21T15:20:12.448Z,28.06
2017-07-21T15:22:45.007Z,28.09
2017-07-21T15:25:17.031Z,28.15
2017-07-21T15:27:49.452Z,28.00
2017-07-21T15:30:22.000Z,28.20
2017-07-21T15:32:54.499Z,27.99
2017-07-21T15:35:26.852Z,27.40
2017-07-21T15:37:59.257Z,27.22
2017-07-21T15:40:31.708Z,27.34
2017-07-21T15:43:04.100Z,27.49
2017-07-21T15:45:36.456Z,27.87
2017-07-21T15:48:09.018Z,28.13
2017-07-21T15:50:41.300Z,28.26
2017-07-21T15:53:13.727Z,28.15
2017-07-21T15:55:46.201Z,28.20
2017-07-21T15:58:18.748Z,28.34
2017-07-21T16:00:51.212Z,28.47
2017-07-21T16:03:23.601Z,28.51
2017-07-21T16:05:55.936Z,28.44
2017-07-21T16:08:28.376Z,28.19
2017-07-21T16:11:00.736Z,28.00
2017-07-21T16:13:33.068Z,28.14
2017-07-21T16:16:05.428Z,28.18
2017-07-21T16:18:37.852Z,28.24
2017-07-21T16:21:10.192Z,28.26
2017-07-21T16:23:42.705Z,28.17
2017-07-21T16:26:15.249Z,27.84
2017-07-21T16:28:47.743Z,27.37
2017-07-21T16:31:20.204Z,27.20
2017-07-21T16:33:52.704Z,27.13
2017-07-21T16:36:25.036Z,27.14
2017-07-21T16:38:57.436Z,27.03
2017-07-21T16:41:29.690Z,27.02
2017-07-21T16:44:02.196Z,26.89
2017-07-21T16:46:34.740Z,26.62
2017-07-21T16:49:07.354Z,26.76
2017-07-21T16:51:40.233Z,26.74
2017-07-21T16:54:12.329Z,26.77
2017-07-21T16:56:44.977Z,26.66
2017-07-21T16:59:17.147Z,26.44
2017-07-21T17:01:49.526Z,26.54
2017-07-21T17:04:21.936Z,26.28
2017-07-21T17:06:54.360Z,26.17
2017-07-21T17:09:26.666Z,26.09
2017-07-21T17:11:59.013Z,25.99
2017-07-21T17:14:31.272Z,25.89
2017-07-21T17:17:03.640Z,25.77
2017-07-21T17:19:36.124Z,25.81
2017-07-21T17:22:08.525Z,25.76
2017-07-21T17:27:38.740Z,25.84
2017-07-21T17:30:11.115Z,25.77
2017-07-21T17:32:43.447Z,25.74
2017-07-21T17:35:15.741Z,25.76
2017-07-21T17:37:48.023Z,25.51
2017-07-21T17:40:20.586Z,25.39
2017-07-21T17:42:53.065Z,25.29
2017-07-21T17:45:25.555Z,25.32
2017-07-21T17:47:57.984Z,25.35
2017-07-21T17:50:30.459Z,25.33
2017-07-21T17:53:02.759Z,25.49
2017-07-21T17:55:35.201Z,25.67
2017-07-21T17:58:07.548Z,25.75
2017-07-21T18:00:39.944Z,25.80
2017-07-21T18:03:12.343Z,25.84
2017-07-21T18:05:44.807Z,25.98
2017-07-21T18:08:17.109Z,26.06
2017-07-21T18:10:49.684Z,26.08
2017-07-21T18:13:22.036Z,26.00
2017-07-21T18:15:54.520Z,25.97
2017-07-21T18:18:26.815Z,25.93
2017-07-21T18:20:59.271Z,25.84
2017-07-21T18:23:31.879Z,25.60
2017-07-21T18:26:04.017Z,25.42
2017-07-21T18:28:36.300Z,25.08
2017-07-21T18:31:08.798Z,24.83
2017-07-21T18:33:41.135Z,24.62
2017-07-21T18:36:13.599Z,24.55
2017-07-21T18:38:46.051Z,24.38
2017-07-21T18:41:18.511Z,24.31
2017-07-21T18:43:50.876Z,24.13
2017-07-21T18:46:23.352Z,24.09
2017-07-21T18:48:55.827Z,24.05
2017-07-21T18:51:28.302Z,24.01
2017-07-21T18:54:00.662Z,23.90
2017-07-21T18:56:33.171Z,23.85
2017-07-21T18:59:05.656Z,23.78
2017-07-21T19:01:37.935Z,23.69
2017-07-21T19:04:10.260Z,23.59
2017-07-21T19:06:42.732Z,23.52
2017-07-21T19:09:15.019Z,23.38
2017-07-21T19:11:47.483Z,23.32
2017-07-21T19:14:19.915Z,23.26
2017-07-21T19:16:52.420Z,23.26
2017-07-21T19:19:24.819Z,23.21
2017-07-21T19:21:57.281Z,23.16
2017-07-21T19:24:30.151Z,23.09
2017-07-21T19:27:02.160Z,23.04
2017-07-21T19:29:34.600Z,22.99
2017-07-21T19:32:07.047Z,22.90
2017-07-21T19:34:39.365Z,22.75
2017-07-21T19:37:11.915Z,22.69
2017-07-21T19:39:44.142Z,22.62
2017-07-21T19:42:16.647Z,22.55
2017-07-21T19:44:49.059Z,22.49
2017-07-21T19:47:21.611Z,22.44
2017-07-21T19:49:53.976Z,22.31
2017-07-21T19:52:26.439Z,22.29
2017-07-21T19:54:58.868Z,22.25
2017-07-21T19:57:31.352Z,22.20
2017-07-21T20:00:03.533Z,22.16
2017-07-21T20:02:35.925Z,22.09
2017-07-21T20:05:08.166Z,21.99
2017-07-21T20:07:40.515Z,21.92
2017-07-21T20:10:12.868Z,21.89
2017-07-21T20:12:45.556Z,21.88
2017-07-21T20:15:17.968Z,21.86
2017-07-21T20:17:50.452Z,21.88
2017-07-21T20:20:22.775Z,21.87
2017-07-21T20:22:55.287Z,21.81
2017-07-21T20:25:27.514Z,21.71
2017-07-21T20:27:59.906Z,21.68
2017-07-21T20:30:32.339Z,21.59
2017-07-21T20:33:05.508Z,21.52
2017-07-21T20:35:38.047Z,21.38
2017-07-21T20:38:10.444Z,21.28
2017-07-21T20:40:42.688Z,21.18
2017-07-21T20:43:15.079Z,21.08
2017-07-21T20:45:47.327Z,21.02
2017-07-21T20:48:26.750Z,21.00
2017-07-21T20:50:59.092Z,20.94
2017-07-21T20:53:31.528Z,20.89
2017-07-21T20:56:03.671Z,20.82
2017-07-21T20:58:36.099Z,20.73
2017-07-21T21:01:08.512Z,20.67
2017-07-21T21:03:41.013Z,20.66
2017-07-21T21:06:13.140Z,20.63
2017-07-21T21:08:45.524Z,20.62
2017-07-21T21:11:17.767Z,20.62
2017-07-21T21:13:50.115Z,20.55
2017-07-21T21:16:22.427Z,20.50
2017-07-21T21:18:54.797Z,20.44
2017-07-21T21:21:27.147Z,20.36
2017-07-21T21:23:59.515Z,20.31
2017-07-21T21:26:31.924Z,20.34
2017-07-21T21:29:04.391Z,20.32
2017-07-21T21:31:36.423Z,20.29
2017-07-21T21:34:08.796Z,20.20
2017-07-21T21:36:41.139Z,20.14
2017-07-21T21:39:13.477Z,20.11
2017-07-21T21:41:45.804Z,20.08
2017-07-21T21:44:18.184Z,20.00
2017-07-21T21:46:50.419Z,19.96
2017-07-21T21:49:22.816Z,19.93
2017-07-21T21:51:55.063Z,19.81
2017-07-21T21:54:27.467Z,19.82
2017-07-21T21:56:59.920Z,19.79
2017-07-21T21:59:32.326Z,19.76
2017-07-21T22:02:04.701Z,19.70
2017-07-21T22:04:37.183Z,19.68
2017-07-21T22:07:09.448Z,19.56
2017-07-21T22:09:41.743Z,19.45
2017-07-21T22:12:14.112Z,19.31
2017-07-21T22:14:46.540Z,19.22
2017-07-21T22:17:18.972Z,19.15
2017-07-21T22:19:51.389Z,19.15
2017-07-21T22:22:23.872Z,19.15
2017-07-21T22:24:56.284Z,19.10
2017-07-21T22:27:28.516Z,18.99
2017-07-21T22:30:00.687Z,18.96
2017-07-21T22:32:32.884Z,18.89
2017-07-21T22:35:05.148Z,18.94
2017-07-21T22:37:37.487Z,18.90
2017-07-21T22:40:09.996Z,18.79
2017-07-21T22:42:42.065Z,18.72
2017-07-21T22:45:14.365Z,18.66
2017-07-21T22:47:46.503Z,18.62
2017-07-21T22:50:18.998Z,18.61
2017-07-21T22:52:51.331Z,18.62
2017-07-21T22:55:23.600Z,18.53
2017-07-21T22:57:56.114Z,18.54
2017-07-21T23:00:28.327Z,18.51
2017-07-21T23:03:00.608Z,18.51
2017-07-21T23:05:33.169Z,18.45
2017-07-21T23:08:05.486Z,18.41
2017-07-21T23:10:37.933Z,18.37
2017-07-21T23:13:10.447Z,18.39
2017-07-21T23:15:42.796Z,18.32
2017-07-21T23:18:15.184Z,18.36
2017-07-21T23:20:47.493Z,18.38
2017-07-21T23:23:19.805Z,18.40
2017-07-21T23:25:52.216Z,18.40
2017-07-21T23:28:24.551Z,18.41
2017-07-21T23:30:56.931Z,18.41
2017-07-21T23:33:29.276Z,18.38
2017-07-21T23:36:01.673Z,18.39
2017-07-21T23:38:34.176Z,18.43
2017-07-21T23:41:06.459Z,18.42
2017-07-21T23:43:38.787Z,18.44
2017-07-21T23:46:11.153Z,18.43
2017-07-21T23:48:43.680Z,18.37
2017-07-21T23:51:16.007Z,18.35
2017-07-21T23:53:48.435Z,18.34
2017-07-21T23:56:20.827Z,18.35
2017-07-21T23:58:53.240Z,18.35
